sensor_id;sensor_type;location;lat;lon;timestamp;temperature;humidity
66035;HTU21D;52805;51.074;5.842;2023-05-18T00:02:05;12.35;118.99
66035;HTU21D;52805;51.074;5.842;2023-05-18T00:04:32;12.29;118.99
66035;HTU21D;52805;51.074;5.842;2023-05-18T00:06:59;12.27;118.99
66035;HTU21D;52805;51.074;5.842;2023-05-18T00:09:29;12.22;118.99
66035;HTU21D;52805;51.074;5.842;2023-05-18T00:11:57;12.20;118.99
66035;HTU21D;52805;51.074;5.842;2023-05-18T00:14:23;12.17;118.99
66035;HTU21D;52805;51.074;5.842;2023-05-18T00:16:48;12.13;118.99
66035;HTU21D;52805;51.074;5.842;2023-05-18T00:19:14;12.10;118.99
66035;HTU21D;52805;51.074;5.842;2023-05-18T00:21:44;12.04;118.99
66035;HTU21D;52805;51.074;5.842;2023-05-18T00:24:14;12.01;118.99
66035;HTU21D;52805;51.074;5.842;2023-05-18T00:26:43;12.00;118.99
66035;HTU21D;52805;51.074;5.842;2023-05-18T00:29:10;11.94;118.99
66035;HTU21D;52805;51.074;5.842;2023-05-18T00:31:37;11.92;118.99
66035;HTU21D;52805;51.074;5.842;2023-05-18T00:36:32;11.85;118.99
66035;HTU21D;52805;51.074;5.842;2023-05-18T00:38:59;11.82;118.99
66035;HTU21D;52805;51.074;5.842;2023-05-18T00:41:26;11.76;118.99
66035;HTU21D;52805;51.074;5.842;2023-05-18T00:43:52;11.72;118.99
66035;HTU21D;52805;51.074;5.842;2023-05-18T00:46:19;11.69;118.99
66035;HTU21D;52805;51.074;5.842;2023-05-18T00:48:45;11.62;118.99
66035;HTU21D;52805;51.074;5.842;2023-05-18T00:51:11;11.59;118.99
66035;HTU21D;52805;51.074;5.842;2023-05-18T00:53:37;11.59;118.99
66035;HTU21D;52805;51.074;5.842;2023-05-18T00:56:03;11.54;118.99
66035;HTU21D;52805;51.074;5.842;2023-05-18T00:58:29;11.49;118.99
66035;HTU21D;52805;51.074;5.842;2023-05-18T01:00:56;11.47;118.99
66035;HTU21D;52805;51.074;5.842;2023-05-18T01:03:22;11.46;118.99
66035;HTU21D;52805;51.074;5.842;2023-05-18T01:05:49;11.43;118.99
66035;HTU21D;52805;51.074;5.842;2023-05-18T01:08:21;11.42;118.99
66035;HTU21D;52805;51.074;5.842;2023-05-18T01:10:55;11.40;118.99
66035;HTU21D;52805;51.074;5.842;2023-05-18T01:14:23;11.36;118.99
66035;HTU21D;52805;51.074;5.842;2023-05-18T01:16:31;11.29;118.99
66035;HTU21D;52805;51.074;5.842;2023-05-18T01:26:19;11.16;118.99
66035;HTU21D;52805;51.074;5.842;2023-05-18T01:28:37;11.10;118.99
66035;HTU21D;52805;51.074;5.842;2023-05-18T01:31:03;11.11;118.99
66035;HTU21D;52805;51.074;5.842;2023-05-18T01:33:31;11.08;118.99
66035;HTU21D;52805;51.074;5.842;2023-05-18T01:35:57;11.07;118.99
66035;HTU21D;52805;51.074;5.842;2023-05-18T01:38:26;11.02;118.99
66035;HTU21D;52805;51.074;5.842;2023-05-18T01:41:05;11.01;118.99
66035;HTU21D;52805;51.074;5.842;2023-05-18T01:43:35;10.99;118.99
66035;HTU21D;52805;51.074;5.842;2023-05-18T01:46:21;10.96;118.99
66035;HTU21D;52805;51.074;5.842;2023-05-18T01:48:53;10.89;118.99
66035;HTU21D;52805;51.074;5.842;2023-05-18T01:51:26;10.85;118.99
66035;HTU21D;52805;51.074;5.842;2023-05-18T01:54:01;10.81;118.99
66035;HTU21D;52805;51.074;5.842;2023-05-18T01:56:31;10.79;118.99
66035;HTU21D;52805;51.074;5.842;2023-05-18T01:58:58;10.78;118.99
66035;HTU21D;52805;51.074;5.842;2023-05-18T02:01:24;10.77;118.99
66035;HTU21D;52805;51.074;5.842;2023-05-18T02:03:50;10.73;118.99
66035;HTU21D;52805;51.074;5.842;2023-05-18T02:06:16;10.71;118.99
66035;HTU21D;52805;51.074;5.842;2023-05-18T02:08:43;10.69;118.99
66035;HTU21D;52805;51.074;5.842;2023-05-18T02:11:09;10.68;118.99
66035;HTU21D;52805;51.074;5.842;2023-05-18T02:13:35;10.65;118.99
66035;HTU21D;52805;51.074;5.842;2023-05-18T02:16:02;10.60;118.99
66035;HTU21D;52805;51.074;5.842;2023-05-18T02:18:28;10.56;118.99
66035;HTU21D;52805;51.074;5.842;2023-05-18T02:20:58;10.53;118.99
66035;HTU21D;52805;51.074;5.842;2023-05-18T02:23:25;10.52;118.99
66035;HTU21D;52805;51.074;5.842;2023-05-18T02:25:51;10.49;118.99
66035;HTU21D;52805;51.074;5.842;2023-05-18T02:28:20;10.42;118.99
66035;HTU21D;52805;51.074;5.842;2023-05-18T02:30:46;10.41;118.99
66035;HTU21D;52805;51.074;5.842;2023-05-18T02:33:14;10.48;118.99
66035;HTU21D;52805;51.074;5.842;2023-05-18T02:35:40;10.41;118.99
66035;HTU21D;52805;51.074;5.842;2023-05-18T02:38:06;10.42;118.99
66035;HTU21D;52805;51.074;5.842;2023-05-18T02:40:32;10.40;118.99
66035;HTU21D;52805;51.074;5.842;2023-05-18T02:42:59;10.39;118.99
66035;HTU21D;52805;51.074;5.842;2023-05-18T02:45:26;10.37;118.99
66035;HTU21D;52805;51.074;5.842;2023-05-18T02:47:52;10.35;118.99
66035;HTU21D;52805;51.074;5.842;2023-05-18T02:50:18;10.33;118.99
66035;HTU21D;52805;51.074;5.842;2023-05-18T02:52:44;10.30;118.99
66035;HTU21D;52805;51.074;5.842;2023-05-18T02:55:10;10.28;118.99
66035;HTU21D;52805;51.074;5.842;2023-05-18T02:58:00;10.27;118.99
66035;HTU21D;52805;51.074;5.842;2023-05-18T03:01:05;10.23;118.99
66035;HTU21D;52805;51.074;5.842;2023-05-18T03:03:39;10.21;118.99
66035;HTU21D;52805;51.074;5.842;2023-05-18T03:06:07;10.21;118.99
66035;HTU21D;52805;51.074;5.842;2023-05-18T03:08:34;10.20;118.99
66035;HTU21D;52805;51.074;5.842;2023-05-18T03:11:02;10.20;118.99
66035;HTU21D;52805;51.074;5.842;2023-05-18T03:13:28;10.18;118.99
66035;HTU21D;52805;51.074;5.842;2023-05-18T03:15:54;10.15;118.99
66035;HTU21D;52805;51.074;5.842;2023-05-18T03:18:21;10.13;118.99
66035;HTU21D;52805;51.074;5.842;2023-05-18T03:20:47;10.11;118.99
66035;HTU21D;52805;51.074;5.842;2023-05-18T03:23:17;10.06;118.99
66035;HTU21D;52805;51.074;5.842;2023-05-18T03:25:43;10.04;118.99
66035;HTU21D;52805;51.074;5.842;2023-05-18T03:28:09;10.00;118.99
66035;HTU21D;52805;51.074;5.842;2023-05-18T03:30:35;9.97;118.99
66035;HTU21D;52805;51.074;5.842;2023-05-18T03:33:02;9.97;118.99
66035;HTU21D;52805;51.074;5.842;2023-05-18T03:35:29;9.93;118.99
66035;HTU21D;52805;51.074;5.842;2023-05-18T03:37:54;9.93;118.99
66035;HTU21D;52805;51.074;5.842;2023-05-18T03:40:20;9.93;118.99
66035;HTU21D;52805;51.074;5.842;2023-05-18T03:42:47;9.90;118.99
66035;HTU21D;52805;51.074;5.842;2023-05-18T03:45:14;9.88;118.99
66035;HTU21D;52805;51.074;5.842;2023-05-18T03:47:41;9.89;118.99
66035;HTU21D;52805;51.074;5.842;2023-05-18T03:50:07;9.90;118.99
66035;HTU21D;52805;51.074;5.842;2023-05-18T03:52:35;9.88;118.99
66035;HTU21D;52805;51.074;5.842;2023-05-18T03:55:02;9.85;118.99
66035;HTU21D;52805;51.074;5.842;2023-05-18T03:57:30;9.84;118.99
66035;HTU21D;52805;51.074;5.842;2023-05-18T03:59:59;9.80;118.99
66035;HTU21D;52805;51.074;5.842;2023-05-18T04:02:25;9.77;118.99
66035;HTU21D;52805;51.074;5.842;2023-05-18T04:04:51;9.74;118.99
66035;HTU21D;52805;51.074;5.842;2023-05-18T04:07:19;9.70;118.99
66035;HTU21D;52805;51.074;5.842;2023-05-18T04:09:49;9.70;118.99
66035;HTU21D;52805;51.074;5.842;2023-05-18T04:12:17;9.69;118.99
66035;HTU21D;52805;51.074;5.842;2023-05-18T04:14:43;9.68;118.99
66035;HTU21D;52805;51.074;5.842;2023-05-18T04:17:18;9.69;118.99
66035;HTU21D;52805;51.074;5.842;2023-05-18T04:19:48;9.70;118.99
66035;HTU21D;52805;51.074;5.842;2023-05-18T04:22:15;9.72;118.99
66035;HTU21D;52805;51.074;5.842;2023-05-18T04:24:41;9.75;118.99
66035;HTU21D;52805;51.074;5.842;2023-05-18T04:27:10;9.79;118.99
66035;HTU21D;52805;51.074;5.842;2023-05-18T04:29:36;9.80;118.99
66035;HTU21D;52805;51.074;5.842;2023-05-18T04:32:05;9.84;118.99
66035;HTU21D;52805;51.074;5.842;2023-05-18T04:34:33;9.88;118.99
66035;HTU21D;52805;51.074;5.842;2023-05-18T04:37:05;9.90;118.99
66035;HTU21D;52805;51.074;5.842;2023-05-18T04:39:32;9.93;118.99
66035;HTU21D;52805;51.074;5.842;2023-05-18T04:42:00;9.94;118.99
66035;HTU21D;52805;51.074;5.842;2023-05-18T04:44:28;9.96;118.99
66035;HTU21D;52805;51.074;5.842;2023-05-18T04:46:56;10.03;118.99
66035;HTU21D;52805;51.074;5.842;2023-05-18T04:49:23;10.05;118.99
66035;HTU21D;52805;51.074;5.842;2023-05-18T04:51:52;10.06;118.99
66035;HTU21D;52805;51.074;5.842;2023-05-18T04:54:22;10.09;118.99
66035;HTU21D;52805;51.074;5.842;2023-05-18T04:56:49;10.14;118.99
66035;HTU21D;52805;51.074;5.842;2023-05-18T04:59:17;10.19;118.99
66035;HTU21D;52805;51.074;5.842;2023-05-18T05:01:43;10.21;118.99
66035;HTU21D;52805;51.074;5.842;2023-05-18T05:04:10;10.20;118.99
66035;HTU21D;52805;51.074;5.842;2023-05-18T05:06:36;10.21;118.99
66035;HTU21D;52805;51.074;5.842;2023-05-18T05:09:02;10.23;118.99
66035;HTU21D;52805;51.074;5.842;2023-05-18T05:11:28;10.24;118.99
66035;HTU21D;52805;51.074;5.842;2023-05-18T05:13:54;10.25;118.99
66035;HTU21D;52805;51.074;5.842;2023-05-18T05:16:19;10.22;118.99
66035;HTU21D;52805;51.074;5.842;2023-05-18T05:18:45;10.26;118.99
66035;HTU21D;52805;51.074;5.842;2023-05-18T05:21:11;10.28;118.99
66035;HTU21D;52805;51.074;5.842;2023-05-18T05:23:36;10.33;118.99
66035;HTU21D;52805;51.074;5.842;2023-05-18T05:26:02;10.39;118.99
66035;HTU21D;52805;51.074;5.842;2023-05-18T05:28:28;10.41;118.99
66035;HTU21D;52805;51.074;5.842;2023-05-18T05:30:54;10.44;118.99
66035;HTU21D;52805;51.074;5.842;2023-05-18T05:33:20;10.50;118.99
66035;HTU21D;52805;51.074;5.842;2023-05-18T05:35:45;10.56;118.99
66035;HTU21D;52805;51.074;5.842;2023-05-18T05:38:11;10.62;118.99
66035;HTU21D;52805;51.074;5.842;2023-05-18T05:40:37;10.65;118.99
66035;HTU21D;52805;51.074;5.842;2023-05-18T05:43:04;10.70;118.99
66035;HTU21D;52805;51.074;5.842;2023-05-18T05:45:31;10.71;118.99
66035;HTU21D;52805;51.074;5.842;2023-05-18T05:48:00;10.78;118.99
66035;HTU21D;52805;51.074;5.842;2023-05-18T05:50:26;10.85;118.99
66035;HTU21D;52805;51.074;5.842;2023-05-18T05:52:55;10.93;118.99
66035;HTU21D;52805;51.074;5.842;2023-05-18T05:55:23;10.99;118.99
66035;HTU21D;52805;51.074;5.842;2023-05-18T05:57:49;11.07;118.99
66035;HTU21D;52805;51.074;5.842;2023-05-18T06:00:15;11.07;118.99
66035;HTU21D;52805;51.074;5.842;2023-05-18T06:02:49;11.08;118.99
66035;HTU21D;52805;51.074;5.842;2023-05-18T06:05:23;11.10;118.99
66035;HTU21D;52805;51.074;5.842;2023-05-18T06:07:49;11.12;118.99
66035;HTU21D;52805;51.074;5.842;2023-05-18T06:10:15;11.10;118.99
66035;HTU21D;52805;51.074;5.842;2023-05-18T06:12:41;11.14;118.99
66035;HTU21D;52805;51.074;5.842;2023-05-18T06:15:07;11.19;118.99
66035;HTU21D;52805;51.074;5.842;2023-05-18T06:17:34;11.25;118.99
66035;HTU21D;52805;51.074;5.842;2023-05-18T06:20:00;11.29;118.99
66035;HTU21D;52805;51.074;5.842;2023-05-18T06:22:26;11.32;118.99
66035;HTU21D;52805;51.074;5.842;2023-05-18T06:25:12;11.39;118.99
66035;HTU21D;52805;51.074;5.842;2023-05-18T06:27:55;11.32;118.99
66035;HTU21D;52805;51.074;5.842;2023-05-18T06:30:37;11.32;118.99
66035;HTU21D;52805;51.074;5.842;2023-05-18T06:33:10;11.37;118.99
66035;HTU21D;52805;51.074;5.842;2023-05-18T06:35:36;11.38;118.99
66035;HTU21D;52805;51.074;5.842;2023-05-18T06:38:02;11.41;118.99
66035;HTU21D;52805;51.074;5.842;2023-05-18T06:40:28;11.42;118.99
66035;HTU21D;52805;51.074;5.842;2023-05-18T06:42:53;11.48;118.99
66035;HTU21D;52805;51.074;5.842;2023-05-18T06:45:39;11.52;118.99
66035;HTU21D;52805;51.074;5.842;2023-05-18T06:48:24;11.55;118.99
66035;HTU21D;52805;51.074;5.842;2023-05-18T06:50:50;11.59;118.99
66035;HTU21D;52805;51.074;5.842;2023-05-18T06:53:16;11.54;118.99
66035;HTU21D;52805;51.074;5.842;2023-05-18T06:55:43;11.53;118.99
66035;HTU21D;52805;51.074;5.842;2023-05-18T06:58:09;11.51;118.99
66035;HTU21D;52805;51.074;5.842;2023-05-18T07:00:36;11.59;118.99
66035;HTU21D;52805;51.074;5.842;2023-05-18T07:03:02;11.70;118.99
66035;HTU21D;52805;51.074;5.842;2023-05-18T07:05:28;11.84;118.99
66035;HTU21D;52805;51.074;5.842;2023-05-18T07:07:54;11.98;118.99
66035;HTU21D;52805;51.074;5.842;2023-05-18T07:10:20;12.11;118.99
66035;HTU21D;52805;51.074;5.842;2023-05-18T07:12:47;12.23;118.99
66035;HTU21D;52805;51.074;5.842;2023-05-18T07:15:13;12.38;118.99
66035;HTU21D;52805;51.074;5.842;2023-05-18T07:17:39;12.48;118.99
66035;HTU21D;52805;51.074;5.842;2023-05-18T07:20:06;12.56;118.99
66035;HTU21D;52805;51.074;5.842;2023-05-18T07:22:33;12.66;118.99
66035;HTU21D;52805;51.074;5.842;2023-05-18T07:24:59;12.80;118.99
66035;HTU21D;52805;51.074;5.842;2023-05-18T07:27:26;12.88;118.99
66035;HTU21D;52805;51.074;5.842;2023-05-18T07:29:52;12.96;118.99
66035;HTU21D;52805;51.074;5.842;2023-05-18T07:32:17;13.06;118.99
66035;HTU21D;52805;51.074;5.842;2023-05-18T07:34:43;13.18;118.99
66035;HTU21D;52805;51.074;5.842;2023-05-18T07:37:11;13.29;118.99
66035;HTU21D;52805;51.074;5.842;2023-05-18T07:39:37;13.46;118.99
66035;HTU21D;52805;51.074;5.842;2023-05-18T07:42:03;13.48;118.99
66035;HTU21D;52805;51.074;5.842;2023-05-18T07:44:29;13.53;118.99
66035;HTU21D;52805;51.074;5.842;2023-05-18T07:46:55;13.63;118.99
66035;HTU21D;52805;51.074;5.842;2023-05-18T07:49:21;13.73;118.99
66035;HTU21D;52805;51.074;5.842;2023-05-18T07:51:50;13.80;118.99
66035;HTU21D;52805;51.074;5.842;2023-05-18T07:54:16;13.86;118.99
66035;HTU21D;52805;51.074;5.842;2023-05-18T07:56:42;13.93;118.99
66035;HTU21D;52805;51.074;5.842;2023-05-18T07:59:09;13.96;118.99
66035;HTU21D;52805;51.074;5.842;2023-05-18T08:01:35;14.01;118.99
66035;HTU21D;52805;51.074;5.842;2023-05-18T08:04:05;14.04;118.99
66035;HTU21D;52805;51.074;5.842;2023-05-18T08:06:31;14.09;118.99
66035;HTU21D;52805;51.074;5.842;2023-05-18T08:08:57;14.11;118.99
66035;HTU21D;52805;51.074;5.842;2023-05-18T08:11:23;14.14;118.99
66035;HTU21D;52805;51.074;5.842;2023-05-18T08:13:48;14.22;118.99
66035;HTU21D;52805;51.074;5.842;2023-05-18T08:16:14;14.28;118.99
66035;HTU21D;52805;51.074;5.842;2023-05-18T08:18:40;14.34;118.99
66035;HTU21D;52805;51.074;5.842;2023-05-18T08:21:07;14.37;118.99
66035;HTU21D;52805;51.074;5.842;2023-05-18T08:23:37;14.38;118.99
66035;HTU21D;52805;51.074;5.842;2023-05-18T08:26:03;14.40;118.99
66035;HTU21D;52805;51.074;5.842;2023-05-18T08:28:29;14.47;118.99
66035;HTU21D;52805;51.074;5.842;2023-05-18T08:30:56;14.49;118.99
66035;HTU21D;52805;51.074;5.842;2023-05-18T08:33:22;14.55;118.99
66035;HTU21D;52805;51.074;5.842;2023-05-18T08:35:50;14.54;118.99
66035;HTU21D;52805;51.074;5.842;2023-05-18T08:38:16;14.54;118.99
66035;HTU21D;52805;51.074;5.842;2023-05-18T08:43:36;14.65;118.99
66035;HTU21D;52805;51.074;5.842;2023-05-18T08:46:27;14.54;118.99
66035;HTU21D;52805;51.074;5.842;2023-05-18T08:48:54;14.54;118.99
66035;HTU21D;52805;51.074;5.842;2023-05-18T08:51:21;14.60;118.99
66035;HTU21D;52805;51.074;5.842;2023-05-18T08:53:52;14.75;118.99
66035;HTU21D;52805;51.074;5.842;2023-05-18T08:56:22;14.94;118.99
66035;HTU21D;52805;51.074;5.842;2023-05-18T08:58:50;15.10;118.99
66035;HTU21D;52805;51.074;5.842;2023-05-18T09:01:15;15.16;118.99
66035;HTU21D;52805;51.074;5.842;2023-05-18T09:03:43;15.26;118.99
66035;HTU21D;52805;51.074;5.842;2023-05-18T09:06:13;15.39;118.99
66035;HTU21D;52805;51.074;5.842;2023-05-18T09:08:40;15.47;118.99
66035;HTU21D;52805;51.074;5.842;2023-05-18T09:11:07;15.54;118.99
66035;HTU21D;52805;51.074;5.842;2023-05-18T09:13:33;15.63;118.99
66035;HTU21D;52805;51.074;5.842;2023-05-18T09:15:58;15.73;118.99
66035;HTU21D;52805;51.074;5.842;2023-05-18T09:18:24;15.81;118.99
66035;HTU21D;52805;51.074;5.842;2023-05-18T09:20:50;15.90;118.99
66035;HTU21D;52805;51.074;5.842;2023-05-18T09:23:16;15.87;118.99
66035;HTU21D;52805;51.074;5.842;2023-05-18T09:25:44;15.83;118.99
66035;HTU21D;52805;51.074;5.842;2023-05-18T09:28:45;15.81;118.99
66035;HTU21D;52805;51.074;5.842;2023-05-18T09:31:18;15.84;118.99
66035;HTU21D;52805;51.074;5.842;2023-05-18T09:33:46;15.97;118.99
66035;HTU21D;52805;51.074;5.842;2023-05-18T09:36:12;16.05;118.99
66035;HTU21D;52805;51.074;5.842;2023-05-18T09:38:42;16.12;118.77
66035;HTU21D;52805;51.074;5.842;2023-05-18T09:41:11;16.17;118.21
66035;HTU21D;52805;51.074;5.842;2023-05-18T09:43:39;16.20;115.89
66035;HTU21D;52805;51.074;5.842;2023-05-18T09:46:09;16.16;117.23
66035;HTU21D;52805;51.074;5.842;2023-05-18T09:48:40;16.19;117.18
66035;HTU21D;52805;51.074;5.842;2023-05-18T09:51:06;16.29;112.75
66035;HTU21D;52805;51.074;5.842;2023-05-18T09:53:35;16.29;110.23
66035;HTU21D;52805;51.074;5.842;2023-05-18T09:56:06;16.33;108.59
66035;HTU21D;52805;51.074;5.842;2023-05-18T09:58:37;16.42;110.00
66035;HTU21D;52805;51.074;5.842;2023-05-18T10:01:04;16.52;108.30
66035;HTU21D;52805;51.074;5.842;2023-05-18T10:03:35;16.62;107.79
66035;HTU21D;52805;51.074;5.842;2023-05-18T10:06:10;16.72;108.84
66035;HTU21D;52805;51.074;5.842;2023-05-18T10:08:38;16.85;106.83
66035;HTU21D;52805;51.074;5.842;2023-05-18T10:11:05;16.93;106.36
66035;HTU21D;52805;51.074;5.842;2023-05-18T10:13:32;17.05;99.96
66035;HTU21D;52805;51.074;5.842;2023-05-18T10:16:03;17.07;98.64
66035;HTU21D;52805;51.074;5.842;2023-05-18T10:18:33;17.15;97.06
66035;HTU21D;52805;51.074;5.842;2023-05-18T10:21:02;17.17;97.84
66035;HTU21D;52805;51.074;5.842;2023-05-18T10:23:33;17.26;92.80
66035;HTU21D;52805;51.074;5.842;2023-05-18T10:25:59;17.25;92.94
66035;HTU21D;52805;51.074;5.842;2023-05-18T10:28:44;17.33;95.30
66035;HTU21D;52805;51.074;5.842;2023-05-18T10:31:15;17.48;101.48
66035;HTU21D;52805;51.074;5.842;2023-05-18T10:33:43;17.61;100.89
66035;HTU21D;52805;51.074;5.842;2023-05-18T10:36:11;17.64;94.06
66035;HTU21D;52805;51.074;5.842;2023-05-18T10:38:37;17.67;91.63
66035;HTU21D;52805;51.074;5.842;2023-05-18T10:41:11;17.73;89.52
66035;HTU21D;52805;51.074;5.842;2023-05-18T10:43:37;17.84;92.46
66035;HTU21D;52805;51.074;5.842;2023-05-18T10:46:05;17.97;91.97
66035;HTU21D;52805;51.074;5.842;2023-05-18T10:48:37;18.07;88.84
66035;HTU21D;52805;51.074;5.842;2023-05-18T10:51:06;18.17;88.24
66035;HTU21D;52805;51.074;5.842;2023-05-18T10:53:33;18.20;83.32
66035;HTU21D;52805;51.074;5.842;2023-05-18T10:55:59;18.20;79.46
66035;HTU21D;52805;51.074;5.842;2023-05-18T10:58:27;18.28;81.75
66035;HTU21D;52805;51.074;5.842;2023-05-18T11:01:00;18.33;75.12
66035;HTU21D;52805;51.074;5.842;2023-05-18T11:03:27;18.33;78.59
66035;HTU21D;52805;51.074;5.842;2023-05-18T11:06:12;18.44;82.19
66035;HTU21D;52805;51.074;5.842;2023-05-18T11:08:42;18.63;80.41
66035;HTU21D;52805;51.074;5.842;2023-05-18T11:11:10;18.78;80.40
66035;HTU21D;52805;51.074;5.842;2023-05-18T11:13:44;18.87;78.19
66035;HTU21D;52805;51.074;5.842;2023-05-18T11:16:14;18.96;80.90
66035;HTU21D;52805;51.074;5.842;2023-05-18T11:18:41;19.13;79.94
66035;HTU21D;52805;51.074;5.842;2023-05-18T11:24:23;19.42;72.44
66035;HTU21D;52805;51.074;5.842;2023-05-18T11:27:12;19.40;70.98
66035;HTU21D;52805;51.074;5.842;2023-05-18T11:29:43;19.42;69.87
66035;HTU21D;52805;51.074;5.842;2023-05-18T11:32:26;19.50;70.89
66035;HTU21D;52805;51.074;5.842;2023-05-18T11:34:54;19.55;71.68
66035;HTU21D;52805;51.074;5.842;2023-05-18T11:40:08;19.73;66.24
66035;HTU21D;52805;51.074;5.842;2023-05-18T11:42:34;19.57;68.23
66035;HTU21D;52805;51.074;5.842;2023-05-18T11:45:05;19.57;67.54
66035;HTU21D;52805;51.074;5.842;2023-05-18T11:47:32;19.60;67.17
66035;HTU21D;52805;51.074;5.842;2023-05-18T11:49:59;19.72;67.04
66035;HTU21D;52805;51.074;5.842;2023-05-18T11:52:25;19.83;64.55
66035;HTU21D;52805;51.074;5.842;2023-05-18T11:54:55;20.00;66.26
66035;HTU21D;52805;51.074;5.842;2023-05-18T12:00:01;20.22;61.92
66035;HTU21D;52805;51.074;5.842;2023-05-18T12:02:42;20.21;58.41
66035;HTU21D;52805;51.074;5.842;2023-05-18T12:05:10;20.16;57.64
66035;HTU21D;52805;51.074;5.842;2023-05-18T12:07:38;20.17;58.66
66035;HTU21D;52805;51.074;5.842;2023-05-18T12:10:07;20.32;59.19
66035;HTU21D;52805;51.074;5.842;2023-05-18T12:12:33;20.39;58.35
66035;HTU21D;52805;51.074;5.842;2023-05-18T12:15:04;20.51;58.55
66035;HTU21D;52805;51.074;5.842;2023-05-18T12:17:40;20.50;54.92
66035;HTU21D;52805;51.074;5.842;2023-05-18T12:20:11;20.56;52.96
66035;HTU21D;52805;51.074;5.842;2023-05-18T12:22:42;20.57;53.36
66035;HTU21D;52805;51.074;5.842;2023-05-18T12:25:09;20.68;54.20
66035;HTU21D;52805;51.074;5.842;2023-05-18T12:27:39;20.63;56.09
66035;HTU21D;52805;51.074;5.842;2023-05-18T12:30:09;20.66;54.02
66035;HTU21D;52805;51.074;5.842;2023-05-18T12:32:42;20.68;54.22
66035;HTU21D;52805;51.074;5.842;2023-05-18T12:35:08;20.53;53.65
66035;HTU21D;52805;51.074;5.842;2023-05-18T12:37:44;20.33;51.36
66035;HTU21D;52805;51.074;5.842;2023-05-18T12:40:14;20.13;50.56
66035;HTU21D;52805;51.074;5.842;2023-05-18T12:45:17;20.00;53.35
66035;HTU21D;52805;51.074;5.842;2023-05-18T12:47:42;20.11;53.23
66035;HTU21D;52805;51.074;5.842;2023-05-18T12:50:09;20.27;53.88
66035;HTU21D;52805;51.074;5.842;2023-05-18T12:52:35;20.34;52.33
66035;HTU21D;52805;51.074;5.842;2023-05-18T12:55:01;20.35;51.33
66035;HTU21D;52805;51.074;5.842;2023-05-18T12:57:28;20.42;51.48
66035;HTU21D;52805;51.074;5.842;2023-05-18T13:00:00;20.50;50.80
66035;HTU21D;52805;51.074;5.842;2023-05-18T13:02:34;20.49;51.33
66035;HTU21D;52805;51.074;5.842;2023-05-18T13:05:07;20.54;50.58
66035;HTU21D;52805;51.074;5.842;2023-05-18T13:10:10;20.46;50.85
66035;HTU21D;52805;51.074;5.842;2023-05-18T13:12:50;20.50;50.18
66035;HTU21D;52805;51.074;5.842;2023-05-18T13:15:16;20.60;51.17
66035;HTU21D;52805;51.074;5.842;2023-05-18T13:18:03;20.79;52.31
66035;HTU21D;52805;51.074;5.842;2023-05-18T13:20:38;20.98;51.12
66035;HTU21D;52805;51.074;5.842;2023-05-18T13:23:08;21.03;50.05
66035;HTU21D;52805;51.074;5.842;2023-05-18T13:25:34;21.14;49.08
66035;HTU21D;52805;51.074;5.842;2023-05-18T13:28:00;21.20;49.39
66035;HTU21D;52805;51.074;5.842;2023-05-18T13:30:26;21.34;49.23
66035;HTU21D;52805;51.074;5.842;2023-05-18T13:32:52;21.44;47.72
66035;HTU21D;52805;51.074;5.842;2023-05-18T13:35:18;21.38;46.67
66035;HTU21D;52805;51.074;5.842;2023-05-18T13:37:46;21.29;47.80
66035;HTU21D;52805;51.074;5.842;2023-05-18T13:40:17;21.33;48.95
66035;HTU21D;52805;51.074;5.842;2023-05-18T13:42:45;21.28;47.28
66035;HTU21D;52805;51.074;5.842;2023-05-18T13:45:12;21.22;46.87
66035;HTU21D;52805;51.074;5.842;2023-05-18T13:47:38;21.20;46.35
66035;HTU21D;52805;51.074;5.842;2023-05-18T13:50:06;21.17;47.63
66035;HTU21D;52805;51.074;5.842;2023-05-18T13:52:32;21.16;46.97
66035;HTU21D;52805;51.074;5.842;2023-05-18T13:54:58;21.15;47.42
66035;HTU21D;52805;51.074;5.842;2023-05-18T13:57:24;21.25;48.19
66035;HTU21D;52805;51.074;5.842;2023-05-18T13:59:53;21.33;48.09
66035;HTU21D;52805;51.074;5.842;2023-05-18T14:02:19;21.31;46.96
66035;HTU21D;52805;51.074;5.842;2023-05-18T14:04:44;21.19;46.72
66035;HTU21D;52805;51.074;5.842;2023-05-18T14:07:10;21.20;47.53
66035;HTU21D;52805;51.074;5.842;2023-05-18T14:09:36;21.24;48.57
66035;HTU21D;52805;51.074;5.842;2023-05-18T14:12:02;21.31;48.70
66035;HTU21D;52805;51.074;5.842;2023-05-18T14:14:30;21.35;48.41
66035;HTU21D;52805;51.074;5.842;2023-05-18T14:16:56;21.43;47.85
66035;HTU21D;52805;51.074;5.842;2023-05-18T14:19:22;21.40;48.23
66035;HTU21D;52805;51.074;5.842;2023-05-18T14:21:47;21.52;48.57
66035;HTU21D;52805;51.074;5.842;2023-05-18T14:24:13;21.65;47.21
66035;HTU21D;52805;51.074;5.842;2023-05-18T14:26:40;21.54;39.97
66035;HTU21D;52805;51.074;5.842;2023-05-18T14:29:06;21.33;45.56
66035;HTU21D;52805;51.074;5.842;2023-05-18T14:31:31;21.20;46.83
66035;HTU21D;52805;51.074;5.842;2023-05-18T14:33:57;21.14;47.59
66035;HTU21D;52805;51.074;5.842;2023-05-18T14:36:23;21.15;47.73
66035;HTU21D;52805;51.074;5.842;2023-05-18T14:38:49;21.05;45.82
66035;HTU21D;52805;51.074;5.842;2023-05-18T14:41:14;20.93;48.81
66035;HTU21D;52805;51.074;5.842;2023-05-18T14:43:42;20.84;47.14
66035;HTU21D;52805;51.074;5.842;2023-05-18T14:46:07;20.83;47.14
66035;HTU21D;52805;51.074;5.842;2023-05-18T14:48:33;20.96;45.71
66035;HTU21D;52805;51.074;5.842;2023-05-18T14:50:59;20.98;45.21
66035;HTU21D;52805;51.074;5.842;2023-05-18T14:53:24;21.01;47.64
66035;HTU21D;52805;51.074;5.842;2023-05-18T14:55:50;20.93;45.32
66035;HTU21D;52805;51.074;5.842;2023-05-18T14:58:16;20.83;47.28
66035;HTU21D;52805;51.074;5.842;2023-05-18T15:00:42;20.85;48.00
66035;HTU21D;52805;51.074;5.842;2023-05-18T15:03:08;20.90;48.48
66035;HTU21D;52805;51.074;5.842;2023-05-18T15:05:34;20.95;47.70
66035;HTU21D;52805;51.074;5.842;2023-05-18T15:08:00;20.84;45.60
66035;HTU21D;52805;51.074;5.842;2023-05-18T15:10:26;20.84;48.15
66035;HTU21D;52805;51.074;5.842;2023-05-18T15:12:51;20.86;48.27
66035;HTU21D;52805;51.074;5.842;2023-05-18T15:15:17;20.99;47.87
66035;HTU21D;52805;51.074;5.842;2023-05-18T15:17:43;21.11;48.86
66035;HTU21D;52805;51.074;5.842;2023-05-18T15:20:09;21.34;48.33
66035;HTU21D;52805;51.074;5.842;2023-05-18T15:22:35;21.72;47.09
66035;HTU21D;52805;51.074;5.842;2023-05-18T15:25:07;21.95;45.83
66035;HTU21D;52805;51.074;5.842;2023-05-18T15:27:33;22.12;43.31
66035;HTU21D;52805;51.074;5.842;2023-05-18T15:29:59;22.01;43.33
66035;HTU21D;52805;51.074;5.842;2023-05-18T15:32:25;22.13;39.48
66035;HTU21D;52805;51.074;5.842;2023-05-18T15:34:50;22.12;42.59
66035;HTU21D;52805;51.074;5.842;2023-05-18T15:37:18;22.22;42.37
66035;HTU21D;52805;51.074;5.842;2023-05-18T15:39:43;22.39;42.29
66035;HTU21D;52805;51.074;5.842;2023-05-18T15:42:10;22.57;40.24